sensor_id;sensor_type;location;lat;lon;timestamp;P1;durP1;ratioP1;P2;durP2;ratioP2
83682;SDS011;73663;51.298;5.802;2024-03-25T00:02:55;11.25;;;3.47;;
83682;SDS011;73663;51.298;5.802;2024-03-25T00:08:03;10.60;;;2.30;;
83682;SDS011;73663;51.298;5.802;2024-03-25T00:13:10;9.90;;;2.35;;
83682;SDS011;73663;51.298;5.802;2024-03-25T00:18:18;10.60;;;2.75;;
83682;SDS011;73663;51.298;5.802;2024-03-25T00:23:25;10.27;;;2.88;;
83682;SDS011;73663;51.298;5.802;2024-03-25T00:28:33;9.18;;;2.30;;
83682;SDS011;73663;51.298;5.802;2024-03-25T00:33:40;6.53;;;2.47;;
83682;SDS011;73663;51.298;5.802;2024-03-25T00:38:48;10.02;;;2.70;;
83682;SDS011;73663;51.298;5.802;2024-03-25T00:43:55;12.52;;;2.88;;
83682;SDS011;73663;51.298;5.802;2024-03-25T00:49:03;10.15;;;2.28;;
83682;SDS011;73663;51.298;5.802;2024-03-25T00:54:10;14.82;;;3.20;;
83682;SDS011;73663;51.298;5.802;2024-03-25T00:59:18;5.55;;;2.47;;
83682;SDS011;73663;51.298;5.802;2024-03-25T01:04:25;6.13;;;2.40;;
83682;SDS011;73663;51.298;5.802;2024-03-25T01:09:33;11.52;;;2.90;;
83682;SDS011;73663;51.298;5.802;2024-03-25T01:14:40;8.68;;;2.90;;
83682;SDS011;73663;51.298;5.802;2024-03-25T01:19:48;14.05;;;2.83;;
83682;SDS011;73663;51.298;5.802;2024-03-25T01:24:55;13.23;;;3.15;;
83682;SDS011;73663;51.298;5.802;2024-03-25T01:30:03;15.30;;;3.38;;
83682;SDS011;73663;51.298;5.802;2024-03-25T01:35:11;16.17;;;3.78;;
83682;SDS011;73663;51.298;5.802;2024-03-25T01:40:18;12.27;;;3.00;;
83682;SDS011;73663;51.298;5.802;2024-03-25T01:45:26;6.53;;;2.30;;
83682;SDS011;73663;51.298;5.802;2024-03-25T01:50:35;7.85;;;2.53;;
83682;SDS011;73663;51.298;5.802;2024-03-25T01:55:44;9.43;;;3.05;;
83682;SDS011;73663;51.298;5.802;2024-03-25T02:00:53;12.45;;;3.05;;
83682;SDS011;73663;51.298;5.802;2024-03-25T02:06:00;11.45;;;3.47;;
83682;SDS011;73663;51.298;5.802;2024-03-25T02:11:10;13.50;;;3.20;;
83682;SDS011;73663;51.298;5.802;2024-03-25T02:16:18;11.70;;;3.38;;
83682;SDS011;73663;51.298;5.802;2024-03-25T02:21:25;10.77;;;3.25;;
83682;SDS011;73663;51.298;5.802;2024-03-25T02:26:33;11.68;;;2.83;;
83682;SDS011;73663;51.298;5.802;2024-03-25T02:31:40;15.27;;;3.20;;
83682;SDS011;73663;51.298;5.802;2024-03-25T02:36:48;17.17;;;4.32;;
83682;SDS011;73663;51.298;5.802;2024-03-25T02:41:55;16.48;;;3.88;;
83682;SDS011;73663;51.298;5.802;2024-03-25T02:47:03;10.75;;;4.25;;
83682;SDS011;73663;51.298;5.802;2024-03-25T02:52:11;7.45;;;3.33;;
83682;SDS011;73663;51.298;5.802;2024-03-25T02:57:18;11.20;;;3.47;;
83682;SDS011;73663;51.298;5.802;2024-03-25T03:02:26;10.88;;;3.42;;
83682;SDS011;73663;51.298;5.802;2024-03-25T03:07:33;11.40;;;4.40;;
83682;SDS011;73663;51.298;5.802;2024-03-25T03:12:41;15.88;;;4.43;;
83682;SDS011;73663;51.298;5.802;2024-03-25T03:17:48;11.43;;;3.90;;
83682;SDS011;73663;51.298;5.802;2024-03-25T03:22:56;19.55;;;5.78;;
83682;SDS011;73663;51.298;5.802;2024-03-25T03:28:03;14.73;;;4.72;;
83682;SDS011;73663;51.298;5.802;2024-03-25T03:33:10;14.07;;;4.53;;
83682;SDS011;73663;51.298;5.802;2024-03-25T03:38:18;15.02;;;4.72;;
83682;SDS011;73663;51.298;5.802;2024-03-25T03:43:25;17.95;;;4.90;;
83682;SDS011;73663;51.298;5.802;2024-03-25T03:48:33;13.00;;;4.38;;
83682;SDS011;73663;51.298;5.802;2024-03-25T03:53:40;19.23;;;5.55;;
83682;SDS011;73663;51.298;5.802;2024-03-25T03:58:48;16.67;;;4.80;;
83682;SDS011;73663;51.298;5.802;2024-03-25T04:03:57;14.18;;;5.55;;
83682;SDS011;73663;51.298;5.802;2024-03-25T04:09:04;14.20;;;4.88;;
83682;SDS011;73663;51.298;5.802;2024-03-25T04:14:12;16.75;;;4.82;;
83682;SDS011;73663;51.298;5.802;2024-03-25T04:19:19;11.35;;;4.88;;
83682;SDS011;73663;51.298;5.802;2024-03-25T04:24:28;19.55;;;5.88;;
83682;SDS011;73663;51.298;5.802;2024-03-25T04:29:36;19.98;;;5.72;;
83682;SDS011;73663;51.298;5.802;2024-03-25T04:34:44;15.95;;;5.90;;
83682;SDS011;73663;51.298;5.802;2024-03-25T04:39:52;13.25;;;4.20;;
83682;SDS011;73663;51.298;5.802;2024-03-25T04:44:59;19.42;;;5.07;;
83682;SDS011;73663;51.298;5.802;2024-03-25T04:50:07;16.95;;;5.15;;
83682;SDS011;73663;51.298;5.802;2024-03-25T04:55:14;15.52;;;4.72;;
83682;SDS011;73663;51.298;5.802;2024-03-25T05:00:22;21.13;;;5.47;;
83682;SDS011;73663;51.298;5.802;2024-03-25T05:05:29;9.82;;;4.78;;
83682;SDS011;73663;51.298;5.802;2024-03-25T05:10:37;14.88;;;4.75;;
83682;SDS011;73663;51.298;5.802;2024-03-25T05:15:54;16.17;;;4.45;;
83682;SDS011;73663;51.298;5.802;2024-03-25T05:21:01;14.98;;;5.30;;
83682;SDS011;73663;51.298;5.802;2024-03-25T05:26:09;10.02;;;4.78;;
83682;SDS011;73663;51.298;5.802;2024-03-25T05:31:16;13.32;;;4.47;;
83682;SDS011;73663;51.298;5.802;2024-03-25T05:36:24;14.35;;;6.07;;
83682;SDS011;73663;51.298;5.802;2024-03-25T05:41:31;12.60;;;4.70;;
83682;SDS011;73663;51.298;5.802;2024-03-25T05:46:39;13.57;;;4.78;;
83682;SDS011;73663;51.298;5.802;2024-03-25T05:51:46;14.05;;;5.32;;
83682;SDS011;73663;51.298;5.802;2024-03-25T05:56:54;15.07;;;4.80;;
83682;SDS011;73663;51.298;5.802;2024-03-25T06:02:01;11.05;;;4.60;;
83682;SDS011;73663;51.298;5.802;2024-03-25T06:07:09;13.90;;;5.78;;
83682;SDS011;73663;51.298;5.802;2024-03-25T06:12:16;15.13;;;5.32;;
83682;SDS011;73663;51.298;5.802;2024-03-25T06:17:24;11.07;;;4.97;;
83682;SDS011;73663;51.298;5.802;2024-03-25T06:22:31;17.73;;;5.35;;
83682;SDS011;73663;51.298;5.802;2024-03-25T06:27:38;15.75;;;5.00;;
83682;SDS011;73663;51.298;5.802;2024-03-25T06:32:46;19.73;;;5.75;;
83682;SDS011;73663;51.298;5.802;2024-03-25T06:38:10;14.25;;;5.20;;
83682;SDS011;73663;51.298;5.802;2024-03-25T06:43:18;13.80;;;5.50;;
83682;SDS011;73663;51.298;5.802;2024-03-25T06:48:26;17.52;;;5.82;;
83682;SDS011;73663;51.298;5.802;2024-03-25T06:53:34;21.25;;;6.07;;
83682;SDS011;73663;51.298;5.802;2024-03-25T06:58:41;19.25;;;6.43;;
83682;SDS011;73663;51.298;5.802;2024-03-25T07:03:46;17.13;;;6.47;;
83682;SDS011;73663;51.298;5.802;2024-03-25T07:08:53;15.63;;;6.30;;
83682;SDS011;73663;51.298;5.802;2024-03-25T07:14:01;19.02;;;6.03;;
83682;SDS011;73663;51.298;5.802;2024-03-25T07:19:08;19.73;;;6.72;;
83682;SDS011;73663;51.298;5.802;2024-03-25T07:24:16;17.85;;;6.38;;
83682;SDS011;73663;51.298;5.802;2024-03-25T07:29:23;17.92;;;6.30;;
83682;SDS011;73663;51.298;5.802;2024-03-25T07:34:31;20.25;;;7.13;;
83682;SDS011;73663;51.298;5.802;2024-03-25T07:39:38;21.58;;;7.15;;
83682;SDS011;73663;51.298;5.802;2024-03-25T07:44:46;15.85;;;6.80;;
83682;SDS011;73663;51.298;5.802;2024-03-25T07:49:53;16.63;;;7.63;;
83682;SDS011;73663;51.298;5.802;2024-03-25T07:55:01;24.30;;;8.13;;
83682;SDS011;73663;51.298;5.802;2024-03-25T08:00:08;20.48;;;7.45;;
83682;SDS011;73663;51.298;5.802;2024-03-25T08:05:16;24.02;;;7.82;;
83682;SDS011;73663;51.298;5.802;2024-03-25T08:10:24;20.70;;;8.05;;
83682;SDS011;73663;51.298;5.802;2024-03-25T08:15:31;20.52;;;8.07;;
83682;SDS011;73663;51.298;5.802;2024-03-25T08:20:39;29.52;;;8.20;;
83682;SDS011;73663;51.298;5.802;2024-03-25T08:25:46;20.85;;;6.90;;
83682;SDS011;73663;51.298;5.802;2024-03-25T08:30:54;20.95;;;7.90;;
83682;SDS011;73663;51.298;5.802;2024-03-25T08:36:01;17.90;;;6.90;;
83682;SDS011;73663;51.298;5.802;2024-03-25T08:41:09;18.70;;;6.85;;
83682;SDS011;73663;51.298;5.802;2024-03-25T08:46:17;16.70;;;7.13;;
83682;SDS011;73663;51.298;5.802;2024-03-25T08:51:24;20.35;;;7.05;;
83682;SDS011;73663;51.298;5.802;2024-03-25T08:56:32;21.77;;;7.43;;
83682;SDS011;73663;51.298;5.802;2024-03-25T09:01:40;18.70;;;8.45;;
83682;SDS011;73663;51.298;5.802;2024-03-25T09:06:47;17.40;;;6.47;;
83682;SDS011;73663;51.298;5.802;2024-03-25T09:11:55;21.67;;;7.30;;
83682;SDS011;73663;51.298;5.802;2024-03-25T09:17:02;15.85;;;6.95;;
83682;SDS011;73663;51.298;5.802;2024-03-25T09:22:10;16.85;;;6.60;;
83682;SDS011;73663;51.298;5.802;2024-03-25T09:27:17;16.48;;;6.95;;
83682;SDS011;73663;51.298;5.802;2024-03-25T09:32:25;14.18;;;6.70;;
83682;SDS011;73663;51.298;5.802;2024-03-25T09:37:32;12.38;;;5.65;;
83682;SDS011;73663;51.298;5.802;2024-03-25T09:42:42;15.68;;;5.53;;
83682;SDS011;73663;51.298;5.802;2024-03-25T09:47:53;11.82;;;5.53;;
83682;SDS011;73663;51.298;5.802;2024-03-25T09:53:01;13.18;;;5.55;;
83682;SDS011;73663;51.298;5.802;2024-03-25T09:58:09;14.10;;;5.78;;
83682;SDS011;73663;51.298;5.802;2024-03-25T10:03:17;15.43;;;5.93;;
83682;SDS011;73663;51.298;5.802;2024-03-25T10:08:24;14.95;;;6.80;;
83682;SDS011;73663;51.298;5.802;2024-03-25T10:13:32;17.00;;;6.75;;
83682;SDS011;73663;51.298;5.802;2024-03-25T10:18:40;14.70;;;6.25;;
83682;SDS011;73663;51.298;5.802;2024-03-25T10:23:47;10.60;;;4.97;;
83682;SDS011;73663;51.298;5.802;2024-03-25T10:29:02;9.02;;;3.88;;
83682;SDS011;73663;51.298;5.802;2024-03-25T10:34:09;10.75;;;5.13;;
83682;SDS011;73663;51.298;5.802;2024-03-25T10:39:17;13.25;;;4.75;;
83682;SDS011;73663;51.298;5.802;2024-03-25T10:44:28;5.85;;;2.92;;
83682;SDS011;73663;51.298;5.802;2024-03-25T10:49:46;8.35;;;3.88;;
83682;SDS011;73663;51.298;5.802;2024-03-25T10:54:56;4.88;;;2.45;;
83682;SDS011;73663;51.298;5.802;2024-03-25T11:00:04;3.08;;;1.30;;
83682;SDS011;73663;51.298;5.802;2024-03-25T11:05:14;5.53;;;2.40;;
83682;SDS011;73663;51.298;5.802;2024-03-25T11:10:28;5.47;;;2.10;;
83682;SDS011;73663;51.298;5.802;2024-03-25T11:15:39;5.50;;;1.98;;
83682;SDS011;73663;51.298;5.802;2024-03-25T11:20:59;2.42;;;0.80;;
83682;SDS011;73663;51.298;5.802;2024-03-25T11:26:19;4.53;;;2.00;;
83682;SDS011;73663;51.298;5.802;2024-03-25T11:31:35;2.28;;;1.20;;
83682;SDS011;73663;51.298;5.802;2024-03-25T11:36:45;2.22;;;1.10;;
83682;SDS011;73663;51.298;5.802;2024-03-25T11:41:52;3.92;;;1.63;;
83682;SDS011;73663;51.298;5.802;2024-03-25T11:47:00;2.15;;;0.93;;
83682;SDS011;73663;51.298;5.802;2024-03-25T11:52:07;3.38;;;1.63;;
83682;SDS011;73663;51.298;5.802;2024-03-25T11:57:15;7.75;;;3.33;;
83682;SDS011;73663;51.298;5.802;2024-03-25T12:02:22;4.60;;;1.85;;
83682;SDS011;73663;51.298;5.802;2024-03-25T12:07:30;3.42;;;2.15;;
83682;SDS011;73663;51.298;5.802;2024-03-25T12:12:37;3.95;;;2.08;;
83682;SDS011;73663;51.298;5.802;2024-03-25T12:17:46;6.88;;;2.63;;
83682;SDS011;73663;51.298;5.802;2024-03-25T12:22:53;4.38;;;2.22;;
83682;SDS011;73663;51.298;5.802;2024-03-25T12:28:01;6.30;;;2.42;;
83682;SDS011;73663;51.298;5.802;2024-03-25T12:33:12;4.95;;;2.15;;
83682;SDS011;73663;51.298;5.802;2024-03-25T12:38:25;5.40;;;2.40;;
83682;SDS011;73663;51.298;5.802;2024-03-25T12:43:36;5.32;;;2.45;;
83682;SDS011;73663;51.298;5.802;2024-03-25T12:48:47;5.07;;;2.20;;
83682;SDS011;73663;51.298;5.802;2024-03-25T12:53:54;3.22;;;1.90;;
83682;SDS011;73663;51.298;5.802;2024-03-25T12:59:01;4.10;;;1.63;;
83682;SDS011;73663;51.298;5.802;2024-03-25T13:04:09;3.22;;;1.73;;
83682;SDS011;73663;51.298;5.802;2024-03-25T13:09:16;4.65;;;1.83;;
83682;SDS011;73663;51.298;5.802;2024-03-25T13:14:24;3.45;;;1.40;;
83682;SDS011;73663;51.298;5.802;2024-03-25T13:19:31;3.22;;;1.13;;
83682;SDS011;73663;51.298;5.802;2024-03-25T13:24:39;3.45;;;1.15;;
83682;SDS011;73663;51.298;5.802;2024-03-25T13:29:46;4.38;;;1.42;;
83682;SDS011;73663;51.298;5.802;2024-03-25T13:39:59;4.22;;;1.48;;
83682;SDS011;73663;51.298;5.802;2024-03-25T13:45:07;3.88;;;1.50;;
83682;SDS011;73663;51.298;5.802;2024-03-25T13:50:15;2.60;;;1.13;;
83682;SDS011;73663;51.298;5.802;2024-03-25T13:55:24;3.70;;;1.48;;
83682;SDS011;73663;51.298;5.802;2024-03-25T14:05:37;4.70;;;1.30;;
83682;SDS011;73663;51.298;5.802;2024-03-25T14:15:49;3.42;;;1.70;;
83682;SDS011;73663;51.298;5.802;2024-03-25T14:20:57;2.13;;;1.42;;
83682;SDS011;73663;51.298;5.802;2024-03-25T14:26:04;3.83;;;1.65;;
83682;SDS011;73663;51.298;5.802;2024-03-25T14:31:12;3.83;;;2.00;;
83682;SDS011;73663;51.298;5.802;2024-03-25T14:41:25;3.92;;;1.67;;
83682;SDS011;73663;51.298;5.802;2024-03-25T14:46:42;4.57;;;1.65;;
83682;SDS011;73663;51.298;5.802;2024-03-25T14:56:54;6.40;;;1.67;;
83682;SDS011;73663;51.298;5.802;2024-03-25T15:02:02;2.78;;;1.20;;
83682;SDS011;73663;51.298;5.802;2024-03-25T15:07:09;2.47;;;1.05;;
83682;SDS011;73663;51.298;5.802;2024-03-25T15:12:16;3.83;;;1.50;;
83682;SDS011;73663;51.298;5.802;2024-03-25T15:17:24;3.65;;;1.40;;
83682;SDS011;73663;51.298;5.802;2024-03-25T15:22:32;3.55;;;1.48;;
83682;SDS011;73663;51.298;5.802;2024-03-25T15:27:40;3.60;;;1.30;;
83682;SDS011;73663;51.298;5.802;2024-03-25T15:32:47;3.28;;;1.73;;
83682;SDS011;73663;51.298;5.802;2024-03-25T15:37:55;5.47;;;1.63;;
83682;SDS011;73663;51.298;5.802;2024-03-25T15:43:02;3.10;;;1.30;;
83682;SDS011;73663;51.298;5.802;2024-03-25T15:48:10;2.95;;;1.33;;
83682;SDS011;73663;51.298;5.802;2024-03-25T15:53:17;2.85;;;1.40;;
83682;SDS011;73663;51.298;5.802;2024-03-25T15:58:25;4.45;;;1.60;;
83682;SDS011;73663;51.298;5.802;2024-03-25T16:03:32;3.05;;;1.42;;
83682;SDS011;73663;51.298;5.802;2024-03-25T16:08:40;2.65;;;1.10;;
83682;SDS011;73663;51.298;5.802;2024-03-25T16:13:47;4.55;;;1.80;;
83682;SDS011;73663;51.298;5.802;2024-03-25T16:18:55;6.05;;;1.63;;
83682;SDS011;73663;51.298;5.802;2024-03-25T16:24:02;4.90;;;1.42;;
83682;SDS011;73663;51.298;5.802;2024-03-25T16:29:10;3.42;;;1.42;;
83682;SDS011;73663;51.298;5.802;2024-03-25T16:34:17;4.25;;;1.35;;
83682;SDS011;73663;51.298;5.802;2024-03-25T16:39:25;3.03;;;1.50;;
83682;SDS011;73663;51.298;5.802;2024-03-25T16:44:32;7.35;;;1.92;;
83682;SDS011;73663;51.298;5.802;2024-03-25T16:49:40;5.82;;;2.17;;
83682;SDS011;73663;51.298;5.802;2024-03-25T16:54:47;5.40;;;1.60;;
83682;SDS011;73663;51.298;5.802;2024-03-25T16:59:55;9.73;;;2.08;;
83682;SDS011;73663;51.298;5.802;2024-03-25T17:05:03;7.38;;;1.80;;
83682;SDS011;73663;51.298;5.802;2024-03-25T17:10:10;4.60;;;2.13;;
83682;SDS011;73663;51.298;5.802;2024-03-25T17:15:18;3.95;;;1.52;;
83682;SDS011;73663;51.298;5.802;2024-03-25T17:20:26;3.78;;;1.60;;
83682;SDS011;73663;51.298;5.802;2024-03-25T17:25:35;4.47;;;1.92;;
83682;SDS011;73663;51.298;5.802;2024-03-25T17:35:49;3.88;;;1.50;;
83682;SDS011;73663;51.298;5.802;2024-03-25T17:40:57;6.75;;;2.10;;
83682;SDS011;73663;51.298;5.802;2024-03-25T17:46:04;3.45;;;1.58;;
83682;SDS011;73663;51.298;5.802;2024-03-25T17:51:11;3.25;;;1.48;;
83682;SDS011;73663;51.298;5.802;2024-03-25T17:56:19;4.40;;;1.30;;
83682;SDS011;73663;51.298;5.802;2024-03-25T18:01:26;3.03;;;1.48;;
83682;SDS011;73663;51.298;5.802;2024-03-25T18:06:34;4.32;;;1.42;;
83682;SDS011;73663;51.298;5.802;2024-03-25T18:11:42;2.17;;;1.30;;
83682;SDS011;73663;51.298;5.802;2024-03-25T18:16:50;4.57;;;1.30;;
83682;SDS011;73663;51.298;5.802;2024-03-25T18:21:57;2.63;;;1.70;;
83682;SDS011;73663;51.298;5.802;2024-03-25T18:27:05;4.22;;;2.05;;
83682;SDS011;73663;51.298;5.802;2024-03-25T18:32:12;4.00;;;1.70;;
83682;SDS011;73663;51.298;5.802;2024-03-25T18:37:20;3.05;;;1.80;;
83682;SDS011;73663;51.298;5.802;2024-03-25T18:42:28;4.28;;;2.08;;
83682;SDS011;73663;51.298;5.802;2024-03-25T18:47:35;4.05;;;1.70;;
83682;SDS011;73663;51.298;5.802;2024-03-25T18:52:43;4.00;;;2.03;;
83682;SDS011;73663;51.298;5.802;2024-03-25T18:57:50;5.35;;;2.08;;
83682;SDS011;73663;51.298;5.802;2024-03-25T19:02:58;6.05;;;2.05;;
83682;SDS011;73663;51.298;5.802;2024-03-25T19:08:05;5.95;;;1.70;;
83682;SDS011;73663;51.298;5.802;2024-03-25T19:13:13;5.28;;;1.50;;
83682;SDS011;73663;51.298;5.802;2024-03-25T19:18:20;5.25;;;2.00;;
83682;SDS011;73663;51.298;5.802;2024-03-25T19:23:28;3.63;;;1.58;;
83682;SDS011;73663;51.298;5.802;2024-03-25T19:28:35;3.83;;;1.55;;
83682;SDS011;73663;51.298;5.802;2024-03-25T19:33:42;1.90;;;1.33;;
83682;SDS011;73663;51.298;5.802;2024-03-25T19:38:50;4.30;;;1.70;;
83682;SDS011;73663;51.298;5.802;2024-03-25T19:43:57;4.18;;;1.65;;
83682;SDS011;73663;51.298;5.802;2024-03-25T19:49:05;6.32;;;1.40;;
83682;SDS011;73663;51.298;5.802;2024-03-25T19:54:12;2.70;;;1.35;;
83682;SDS011;73663;51.298;5.802;2024-03-25T19:59:20;3.10;;;1.20;;
83682;SDS011;73663;51.298;5.802;2024-03-25T20:04:27;2.55;;;1.38;;
83682;SDS011;73663;51.298;5.802;2024-03-25T20:09:35;2.63;;;1.15;;
83682;SDS011;73663;51.298;5.802;2024-03-25T20:14:42;5.07;;;1.40;;
83682;SDS011;73663;51.298;5.802;2024-03-25T20:19:50;4.13;;;1.20;;
83682;SDS011;73663;51.298;5.802;2024-03-25T20:24:57;3.60;;;1.52;;
83682;SDS011;73663;51.298;5.802;2024-03-25T20:30:05;3.95;;;1.17;;
83682;SDS011;73663;51.298;5.802;2024-03-25T20:35:12;2.92;;;1.10;;
83682;SDS011;73663;51.298;5.802;2024-03-25T20:40:20;3.70;;;1.30;;
83682;SDS011;73663;51.298;5.802;2024-03-25T20:45:27;3.97;;;1.13;;
83682;SDS011;73663;51.298;5.802;2024-03-25T20:50:35;3.50;;;1.20;;
83682;SDS011;73663;51.298;5.802;2024-03-25T20:55:43;7.40;;;1.55;;
83682;SDS011;73663;51.298;5.802;2024-03-25T21:00:50;3.22;;;1.05;;
83682;SDS011;73663;51.298;5.802;2024-03-25T21:05:58;3.35;;;1.25;;
83682;SDS011;73663;51.298;5.802;2024-03-25T21:11:06;5.13;;;1.42;;
83682;SDS011;73663;51.298;5.802;2024-03-25T21:16:13;5.15;;;1.75;;
83682;SDS011;73663;51.298;5.802;2024-03-25T21:21:21;3.80;;;1.20;;
83682;SDS011;73663;51.298;5.802;2024-03-25T21:26:29;3.85;;;1.30;;
83682;SDS011;73663;51.298;5.802;2024-03-25T21:31:36;6.03;;;1.48;;
83682;SDS011;73663;51.298;5.802;2024-03-25T21:36:44;3.97;;;1.15;;
83682;SDS011;73663;51.298;5.802;2024-03-25T21:41:52;4.72;;;1.27;;
83682;SDS011;73663;51.298;5.802;2024-03-25T21:46:59;3.75;;;1.20;;
83682;SDS011;73663;51.298;5.802;2024-03-25T21:52:07;3.72;;;1.10;;
83682;SDS011;73663;51.298;5.802;2024-03-25T21:57:14;3.25;;;1.20;;
83682;SDS011;73663;51.298;5.802;2024-03-25T22:02:22;4.05;;;1.23;;
83682;SDS011;73663;51.298;5.802;2024-03-25T22:07:30;3.92;;;1.50;;
83682;SDS011;73663;51.298;5.802;2024-03-25T22:12:37;5.82;;;1.50;;
83682;SDS011;73663;51.298;5.802;2024-03-25T22:17:45;3.00;;;1.10;;
83682;SDS011;73663;51.298;5.802;2024-03-25T22:22:52;4.05;;;1.30;;
83682;SDS011;73663;51.298;5.802;2024-03-25T22:27:59;6.82;;;1.20;;
83682;SDS011;73663;51.298;5.802;2024-03-25T22:33:07;4.38;;;1.17;;
83682;SDS011;73663;51.298;5.802;2024-03-25T22:38:14;5.25;;;1.20;;
83682;SDS011;73663;51.298;5.802;2024-03-25T22:43:22;3.22;;;1.30;;
83682;SDS011;73663;51.298;5.802;2024-03-25T22:48:29;3.88;;;1.15;;
83682;SDS011;73663;51.298;5.802;2024-03-25T22:53:37;1.73;;;1.20;;
83682;SDS011;73663;51.298;5.802;2024-03-25T22:58:44;5.20;;;1.33;;
83682;SDS011;73663;51.298;5.802;2024-03-25T23:03:52;4.05;;;1.27;;
83682;SDS011;73663;51.298;5.802;2024-03-25T23:08:59;5.90;;;1.50;;
83682;SDS011;73663;51.298;5.802;2024-03-25T23:14:07;4.28;;;1.30;;
83682;SDS011;73663;51.298;5.802;2024-03-25T23:19:14;6.00;;;1.30;;
83682;SDS011;73663;51.298;5.802;2024-03-25T23:24:22;4.20;;;1.48;;
83682;SDS011;73663;51.298;5.802;2024-03-25T23:29:29;3.97;;;1.50;;
83682;SDS011;73663;51.298;5.802;2024-03-25T23:34:37;4.30;;;1.15;;
83682;SDS011;73663;51.298;5.802;2024-03-25T23:39:44;3.95;;;1.40;;
83682;SDS011;73663;51.298;5.802;2024-03-25T23:44:52;3.20;;;1.00;;
83682;SDS011;73663;51.298;5.802;2024-03-25T23:49:59;4.88;;;1.50;;
83682;SDS011;73663;51.298;5.802;2024-03-25T23:55:07;6.45;;;1.52;;
